Time;durP1;ratioP1;P1;durP2;ratioP2;P2;SDS_P1;SDS_P2;PMS_P1;PMS_P2;Temp;Humidity;BMP_temperature;BMP_pressure;BME280_temperature;BME280_humidity;BME280_pressure;Samples;Min_cycle;Max_cycle;Signal;HPM_P1;HPM_P2
2022/01/06 00:01:52;;;;;;;17.55;2.20;;;6.40;99.10;;;;;;5070412;28;20059;-73
2022/01/06 00:04:18;;;;;;;10.07;2.17;;;6.30;99.10;;;;;;5069470;28;20404;-73
2022/01/06 00:06:44;;;;;;;19.83;2.40;;;6.30;99.30;;;;;;5070245;28;20032;-73
2022/01/06 00:09:13;;;;;;;8.35;1.83;;;6.40;99.20;;;;;;5070783;28;20031;-74
2022/01/06 00:11:39;;;;;;;17.92;2.58;;;6.30;99.20;;;;;;5069586;28;20128;-74
2022/01/06 00:14:13;;;;;;;13.52;2.70;;;6.20;99.40;;;;;;5070212;28;20111;-75
2022/01/06 00:16:47;;;;;;;14.32;2.03;;;6.30;99.50;;;;;;5069122;28;20504;-74
2022/01/06 00:24:41;;;;;;;15.75;2.72;;;6.20;99.60;;;;;;5070297;28;20105;-73
2022/01/06 00:27:06;;;;;;;14.50;2.45;;;6.10;99.80;;;;;;5070760;28;20451;-75
2022/01/06 00:29:32;;;;;;;13.63;2.10;;;6.10;99.90;;;;;;5070164;28;20535;-75
2022/01/06 00:31:58;;;;;;;20.55;2.22;;;6.20;99.90;;;;;;5069478;28;20079;-74
2022/01/06 00:34:23;;;;;;;8.73;1.63;;;6.20;99.90;;;;;;5070300;28;20120;-74
2022/01/06 00:36:49;;;;;;;8.25;1.63;;;6.20;99.90;;;;;;5070170;28;20466;-74
2022/01/06 00:39:15;;;;;;;11.23;1.63;;;6.30;99.80;;;;;;5070735;28;20032;-73
2022/01/06 00:41:40;;;;;;;12.77;2.33;;;6.40;99.90;;;;;;5068718;28;20029;-74
2022/01/06 00:44:07;;;;;;;9.43;2.08;;;6.50;99.80;;;;;;5070120;28;20111;-74
2022/01/06 00:46:33;;;;;;;13.35;2.28;;;6.50;99.90;;;;;;5069998;28;20060;-74
2022/01/06 00:48:58;;;;;;;9.80;1.92;;;6.60;99.90;;;;;;5070079;28;20375;-74
2022/01/06 00:51:24;;;;;;;17.48;1.98;;;6.70;99.90;;;;;;5068095;28;20013;-76
2022/01/06 00:53:50;;;;;;;10.02;1.38;;;6.70;99.70;;;;;;5069484;28;20081;-74
2022/01/06 00:56:15;;;;;;;5.25;1.20;;;6.80;99.70;;;;;;5070175;28;20378;-74
2022/01/06 00:58:41;;;;;;;5.72;1.23;;;6.70;99.60;;;;;;5066822;28;20501;-75
2022/01/06 01:01:06;;;;;;;6.38;1.30;;;6.70;99.30;;;;;;5069865;28;20029;-73
2022/01/06 01:03:32;;;;;;;4.70;1.27;;;6.70;99.30;;;;;;5068191;28;20025;-73
2022/01/06 01:05:58;;;;;;;5.30;1.00;;;6.70;99.30;;;;;;5069407;28;20036;-74
2022/01/06 01:08:24;;;;;;;7.75;1.65;;;6.80;99.10;;;;;;5069467;28;20028;-73
2022/01/06 01:10:53;;;;;;;6.07;1.13;;;6.70;99.00;;;;;;5072675;28;20048;-73
2022/01/06 01:13:27;;;;;;;5.25;1.08;;;6.70;99.00;;;;;;5072530;28;20029;-74
2022/01/06 01:15:57;;;;;;;2.63;0.75;;;6.70;98.80;;;;;;5072945;28;20123;-74
2022/01/06 01:18:23;;;;;;;6.57;0.90;;;6.70;98.70;;;;;;5071325;28;20131;-73
2022/01/06 01:20:50;;;;;;;3.22;0.73;;;6.70;98.90;;;;;;5073128;28;20107;-74
2022/01/06 01:23:17;;;;;;;9.05;1.58;;;6.60;98.90;;;;;;5072586;28;20402;-73
2022/01/06 01:25:43;;;;;;;3.25;0.60;;;6.60;98.70;;;;;;5072647;28;20120;-74
2022/01/06 01:28:10;;;;;;;3.88;0.82;;;6.60;98.50;;;;;;5073087;28;20028;-74
2022/01/06 01:31:00;;;;;;;3.80;0.90;;;6.70;98.40;;;;;;5073070;28;20017;-74
2022/01/06 01:33:25;;;;;;;5.28;1.02;;;6.50;98.20;;;;;;5071954;28;20409;-74
2022/01/06 01:35:50;;;;;;;4.47;1.00;;;6.40;98.10;;;;;;5073470;28;20111;-73
2022/01/06 01:38:16;;;;;;;6.88;1.45;;;6.40;98.20;;;;;;5073104;28;20036;-73
2022/01/06 01:40:41;;;;;;;6.47;0.90;;;6.40;98.20;;;;;;5071814;28;20029;-74
2022/01/06 01:43:07;;;;;;;4.15;1.10;;;6.40;98.20;;;;;;5072265;28;20044;-75
2022/01/06 01:45:34;;;;;;;5.88;0.80;;;6.30;98.30;;;;;;5072842;28;20032;-73
2022/01/06 01:48:05;;;;;;;5.47;0.90;;;6.30;98.30;;;;;;5073078;28;20079;-74
2022/01/06 01:50:31;;;;;;;4.75;1.23;;;6.20;98.30;;;;;;5072659;28;20110;-74
2022/01/06 01:52:57;;;;;;;7.80;1.30;;;6.10;98.10;;;;;;5072054;28;20645;-74
2022/01/06 01:55:26;;;;;;;5.15;1.13;;;6.00;98.10;;;;;;5071442;28;20036;-75
2022/01/06 01:57:52;;;;;;;9.77;1.90;;;5.90;97.90;;;;;;5072387;28;20024;-73
2022/01/06 02:00:20;;;;;;;6.35;0.98;;;5.90;98.10;;;;;;5072464;28;20462;-75
2022/01/06 02:02:46;;;;;;;7.43;1.40;;;5.90;98.10;;;;;;5072681;28;20072;-74
2022/01/06 02:05:12;;;;;;;4.53;1.00;;;5.70;98.10;;;;;;5062202;28;20646;-75
2022/01/06 02:07:40;;;;;;;5.10;1.40;;;5.60;98.10;;;;;;5052456;28;20029;-74
2022/01/06 02:10:09;;;;;;;6.47;1.13;;;5.60;98.60;;;;;;5052209;28;20029;-73
2022/01/06 02:12:37;;;;;;;6.07;1.30;;;5.50;98.50;;;;;;5052085;28;20036;-74
2022/01/06 02:15:08;;;;;;;7.93;1.15;;;5.50;98.70;;;;;;5065476;28;20037;-73
2022/01/06 02:17:33;;;;;;;8.85;1.48;;;5.60;98.60;;;;;;5071191;28;20386;-73
2022/01/06 02:20:00;;;;;;;3.60;1.13;;;5.60;98.50;;;;;;5071537;28;20116;-73
2022/01/06 02:22:26;;;;;;;4.23;1.27;;;5.40;98.70;;;;;;5070988;28;20123;-73
2022/01/06 02:24:52;;;;;;;8.98;1.40;;;5.40;98.70;;;;;;5071977;28;20112;-73
2022/01/06 02:27:22;;;;;;;2.70;0.95;;;5.40;98.70;;;;;;5071924;28;20094;-74
2022/01/06 02:29:48;;;;;;;7.82;1.30;;;5.40;98.70;;;;;;5071588;28;20072;-74
2022/01/06 02:32:16;;;;;;;5.50;1.23;;;5.50;98.60;;;;;;5072128;28;20507;-74
2022/01/06 02:34:44;;;;;;;3.25;0.98;;;5.40;98.70;;;;;;5072159;28;20036;-74
2022/01/06 02:37:10;;;;;;;5.40;1.30;;;5.40;98.80;;;;;;5052545;28;20039;-74
2022/01/06 02:39:35;;;;;;;11.35;1.60;;;5.40;98.70;;;;;;5071259;28;20111;-73
2022/01/06 02:42:01;;;;;;;3.63;1.20;;;5.30;98.70;;;;;;5072107;28;20094;-74
2022/01/06 02:44:28;;;;;;;6.45;1.00;;;5.20;99.00;;;;;;5071582;28;20029;-74
2022/01/06 02:46:54;;;;;;;7.20;1.33;;;5.20;99.10;;;;;;5071093;28;20043;-74
2022/01/06 02:49:19;;;;;;;7.53;1.63;;;5.20;99.00;;;;;;5071736;28;20029;-74
2022/01/06 02:51:45;;;;;;;8.15;1.52;;;5.20;99.20;;;;;;5071410;28;20040;-73
2022/01/06 02:54:13;;;;;;;5.22;1.33;;;5.20;99.20;;;;;;5070963;28;20486;-74
2022/01/06 02:56:39;;;;;;;6.03;1.27;;;5.20;99.30;;;;;;5071409;28;20090;-74
2022/01/06 02:59:04;;;;;;;6.68;1.10;;;5.30;99.30;;;;;;5071255;28;20021;-74
2022/01/06 03:01:30;;;;;;;9.40;1.63;;;5.10;99.40;;;;;;5070194;28;20072;-74
2022/01/06 03:03:56;;;;;;;7.72;1.42;;;5.20;99.60;;;;;;5070798;28;20035;-74
2022/01/06 03:06:21;;;;;;;9.52;1.27;;;5.00;99.60;;;;;;5071124;28;20071;-73
2022/01/06 03:08:47;;;;;;;10.27;1.58;;;5.00;99.70;;;;;;5070407;28;20038;-73
2022/01/06 03:11:12;;;;;;;3.08;1.17;;;4.90;99.60;;;;;;5071255;28;20343;-74
2022/01/06 03:13:38;;;;;;;6.10;1.48;;;4.90;99.70;;;;;;5070095;28;20041;-74
2022/01/06 03:16:04;;;;;;;6.15;1.23;;;4.90;99.80;;;;;;5070686;28;20024;-73
2022/01/06 03:18:30;;;;;;;6.22;1.45;;;4.90;99.70;;;;;;5070084;28;20370;-73
2022/01/06 03:20:55;;;;;;;6.93;1.63;;;4.80;99.60;;;;;;5071258;28;20039;-73
2022/01/06 03:23:21;;;;;;;8.68;1.60;;;4.80;99.90;;;;;;5070692;28;20128;-73
2022/01/06 03:25:47;;;;;;;10.25;1.23;;;4.60;99.90;;;;;;5070612;28;20036;-74
2022/01/06 03:28:13;;;;;;;8.95;1.40;;;4.70;99.90;;;;;;5069231;28;20074;-73
2022/01/06 03:30:38;;;;;;;3.58;1.52;;;4.70;99.90;;;;;;5070914;28;20019;-74
2022/01/06 03:33:04;;;;;;;6.03;1.15;;;4.70;99.90;;;;;;5070365;28;20016;-74
2022/01/06 03:35:30;;;;;;;5.20;1.40;;;4.70;99.80;;;;;;5070767;28;20025;-74
2022/01/06 03:37:56;;;;;;;5.47;1.27;;;4.70;99.70;;;;;;5070647;28;20107;-73
2022/01/06 03:40:22;;;;;;;5.63;1.15;;;4.70;99.70;;;;;;5069830;28;20175;-74
2022/01/06 03:42:48;;;;;;;4.93;1.10;;;4.70;99.60;;;;;;5068417;28;20057;-73
2022/01/06 03:45:18;;;;;;;3.67;1.15;;;4.60;99.70;;;;;;5070881;28;20468;-74
2022/01/06 03:47:44;;;;;;;4.57;0.80;;;4.70;99.70;;;;;;5070471;28;20036;-74
2022/01/06 03:50:12;;;;;;;8.80;1.20;;;4.60;99.60;;;;;;5070646;28;20039;-73
2022/01/06 03:52:39;;;;;;;3.83;1.08;;;4.80;99.60;;;;;;5069893;28;20036;-75
2022/01/06 03:55:07;;;;;;;5.68;0.75;;;4.70;99.40;;;;;;5069470;28;20033;-75
2022/01/06 03:57:34;;;;;;;6.35;1.00;;;4.70;99.40;;;;;;5069416;28;20020;-75
2022/01/06 04:00:01;;;;;;;8.80;1.30;;;4.60;99.20;;;;;;5070977;28;20411;-74
2022/01/06 04:02:27;;;;;;;6.93;1.38;;;4.50;99.10;;;;;;5069930;28;20126;-74
2022/01/06 04:04:52;;;;;;;8.70;1.13;;;4.50;99.20;;;;;;5070360;28;20078;-74
2022/01/06 04:07:18;;;;;;;5.43;1.42;;;4.50;99.20;;;;;;5069319;28;20040;-74
2022/01/06 04:09:44;;;;;;;7.57;1.63;;;4.40;99.20;;;;;;5070246;28;20032;-74
2022/01/06 04:12:10;;;;;;;6.55;1.08;;;4.50;99.20;;;;;;5071300;28;20043;-73
2022/01/06 04:14:36;;;;;;;3.60;1.10;;;4.50;99.20;;;;;;5069852;28;20150;-73
2022/01/06 04:17:02;;;;;;;2.40;0.80;;;4.60;99.20;;;;;;5069451;28;20044;-73
2022/01/06 04:19:27;;;;;;;3.15;1.00;;;4.50;99.10;;;;;;5069236;28;20036;-74
2022/01/06 04:21:53;;;;;;;6.18;1.23;;;4.50;99.10;;;;;;5070340;28;20033;-74
2022/01/06 04:24:19;;;;;;;4.47;0.93;;;4.60;99.10;;;;;;5070799;28;20587;-73
2022/01/06 04:26:45;;;;;;;6.00;1.10;;;4.50;98.90;;;;;;5070022;28;20020;-73
2022/01/06 04:29:11;;;;;;;3.33;0.80;;;4.50;98.90;;;;;;5069093;28;20063;-74
2022/01/06 04:31:38;;;;;;;6.15;1.13;;;4.50;98.90;;;;;;5070343;28;20082;-74
2022/01/06 04:34:03;;;;;;;6.70;1.33;;;4.40;98.90;;;;;;5068995;28;20040;-73
2022/01/06 04:36:29;;;;;;;7.93;1.10;;;4.40;99.00;;;;;;5070171;28;20556;-73
2022/01/06 04:38:54;;;;;;;4.32;1.02;;;4.40;99.20;;;;;;5070614;28;20112;-73
2022/01/06 04:41:20;;;;;;;6.13;1.25;;;4.40;99.00;;;;;;5070298;28;20116;-74
2022/01/06 04:43:45;;;;;;;9.30;0.98;;;4.40;98.80;;;;;;5069480;28;20084;-74
2022/01/06 04:46:11;;;;;;;3.15;1.00;;;4.50;98.80;;;;;;5073797;28;20419;-74
2022/01/06 04:48:37;;;;;;;4.75;0.90;;;4.50;98.50;;;;;;5074027;28;20025;-73
2022/01/06 04:51:04;;;;;;;6.00;0.93;;;4.40;98.50;;;;;;5073279;28;20050;-73
2022/01/06 04:53:29;;;;;;;6.22;1.05;;;4.50;98.70;;;;;;5073181;28;20033;-73
2022/01/06 04:55:57;;;;;;;2.88;1.35;;;4.40;98.40;;;;;;5072582;28;20443;-72
2022/01/06 04:58:23;;;;;;;;;;;4.30;98.50;;;;;;5073641;28;20362;-74
2022/01/06 05:00:48;;;;;;;5.75;1.50;;;4.30;98.50;;;;;;5072540;28;19912;-74
2022/01/06 05:03:14;;;;;;;6.88;1.20;;;4.30;98.50;;;;;;5073781;28;20052;-74
2022/01/06 05:05:40;;;;;;;9.73;1.35;;;4.30;98.50;;;;;;5073628;28;20036;-73
2022/01/06 05:08:05;;;;;;;3.20;1.10;;;4.30;98.60;;;;;;5073727;28;20466;-75
2022/01/06 05:10:31;;;;;;;4.13;1.17;;;4.40;98.60;;;;;;5072303;28;20082;-75
2022/01/06 05:12:56;;;;;;;5.55;1.23;;;4.30;98.60;;;;;;5073361;28;20109;-74
2022/01/06 05:15:22;;;;;;;5.38;1.45;;;4.30;98.60;;;;;;5071758;28;20151;-74
2022/01/06 05:17:48;;;;;;;3.42;1.02;;;4.30;98.60;;;;;;5073313;28;20031;-75
2022/01/06 05:20:13;;;;;;;6.93;1.38;;;4.40;98.70;;;;;;5073163;28;20028;-74
2022/01/06 05:22:44;;;;;;;7.57;1.58;;;4.30;98.70;;;;;;5073206;28;20028;-74
2022/01/06 05:25:11;;;;;;;8.43;1.70;;;4.20;98.70;;;;;;5073247;28;20510;-74
2022/01/06 05:27:37;;;;;;;8.15;1.20;;;4.30;98.90;;;;;;5073089;28;20379;-75
2022/01/06 05:30:04;;;;;;;12.35;1.70;;;4.30;98.80;;;;;;5072221;28;20021;-75
2022/01/06 05:32:30;;;;;;;6.90;1.83;;;4.30;98.80;;;;;;5072066;28;20119;-75
2022/01/06 05:34:55;;;;;;;6.78;1.60;;;4.40;98.90;;;;;;5071823;28;20349;-74
2022/01/06 05:37:21;;;;;;;7.60;2.17;;;4.40;98.80;;;;;;5071662;28;20602;-74
2022/01/06 05:39:46;;;;;;;5.10;1.90;;;4.40;98.70;;;;;;5073125;28;20062;-74
2022/01/06 05:42:13;;;;;;;10.90;2.05;;;4.40;98.80;;;;;;5073405;28;20405;-74
2022/01/06 05:44:42;;;;;;;6.32;1.52;;;4.40;98.80;;;;;;5073002;28;20060;-73
2022/01/06 05:47:07;;;;;;;7.25;2.08;;;4.40;98.80;;;;;;5072429;28;20028;-73
2022/01/06 05:49:33;;;;;;;6.20;1.77;;;4.40;99.00;;;;;;5071264;28;20046;-74
2022/01/06 05:52:00;;;;;;;9.90;1.90;;;4.40;99.00;;;;;;5071224;28;20477;-75
2022/01/06 05:54:25;;;;;;;4.75;1.70;;;4.40;98.90;;;;;;5071276;28;20024;-74
2022/01/06 05:56:51;;;;;;;5.90;1.88;;;4.40;99.00;;;;;;5071895;28;20036;-74
2022/01/06 05:59:17;;;;;;;8.35;2.40;;;4.50;99.00;;;;;;5072785;28;20040;-75
2022/01/06 06:01:43;;;;;;;8.02;1.77;;;4.40;99.00;;;;;;5072198;28;20630;-75
2022/01/06 06:04:09;;;;;;;17.77;2.15;;;4.40;99.10;;;;;;5071444;28;20040;-75
2022/01/06 06:06:34;;;;;;;9.85;2.30;;;4.30;99.10;;;;;;5072927;28;20083;-74
2022/01/06 06:09:00;;;;;;;11.32;2.22;;;4.40;99.20;;;;;;5073027;28;20025;-74
2022/01/06 06:11:26;;;;;;;14.52;1.90;;;4.20;99.20;;;;;;5071054;28;20028;-73
2022/01/06 06:13:51;;;;;;;6.78;1.90;;;4.30;99.30;;;;;;5070536;28;20613;-75
2022/01/06 06:16:17;;;;;;;8.30;1.88;;;4.30;99.30;;;;;;5071679;28;20124;-74
2022/01/06 06:18:42;;;;;;;4.55;1.85;;;4.30;99.40;;;;;;5072202;28;20099;-74
2022/01/06 06:21:09;;;;;;;6.03;1.60;;;4.40;99.40;;;;;;5072343;28;20036;-73
2022/01/06 06:23:35;;;;;;;8.45;2.63;;;4.20;99.60;;;;;;5071138;28;20033;-74
2022/01/06 06:26:00;;;;;;;9.02;2.45;;;4.20;99.80;;;;;;5072274;28;20078;-74
2022/01/06 06:28:26;;;;;;;5.63;2.30;;;4.30;99.90;;;;;;5070586;28;20037;-74
2022/01/06 06:30:51;;;;;;;5.40;1.85;;;4.30;99.90;;;;;;5071443;28;20057;-73
2022/01/06 06:33:17;;;;;;;13.82;2.05;;;4.40;99.80;;;;;;5070212;28;20032;-73
2022/01/06 06:35:43;;;;;;;10.68;2.40;;;4.40;99.70;;;;;;5069381;28;20104;-74
2022/01/06 06:38:08;;;;;;;10.80;2.95;;;4.40;99.80;;;;;;5071105;28;20036;-75
2022/01/06 06:40:34;;;;;;;15.82;2.60;;;4.40;99.70;;;;;;5071048;28;20089;-73
2022/01/06 06:43:00;;;;;;;8.52;2.70;;;4.50;99.70;;;;;;5070856;28;20033;-74
2022/01/06 06:45:25;;;;;;;17.63;2.72;;;4.40;99.70;;;;;;5069981;28;20379;-73
2022/01/06 06:47:51;;;;;;;8.23;2.33;;;4.40;99.70;;;;;;5072522;28;20028;-74
2022/01/06 06:50:17;;;;;;;10.10;3.42;;;4.30;99.80;;;;;;5069945;28;20043;-74
2022/01/06 06:52:44;;;;;;;8.98;3.45;;;4.60;99.90;;;;;;5070766;28;20478;-74
2022/01/06 06:55:11;;;;;;;17.52;2.95;;;4.50;99.90;;;;;;5071804;28;20106;-74
2022/01/06 06:57:37;;;;;;;15.55;2.78;;;4.40;99.80;;;;;;5070370;28;20033;-75
2022/01/06 07:00:05;;;;;;;14.07;3.28;;;4.50;99.80;;;;;;5070248;28;20072;-74
2022/01/06 07:02:31;;;;;;;12.43;2.75;;;4.40;99.80;;;;;;5067489;28;20045;-74
2022/01/06 07:04:57;;;;;;;9.52;3.10;;;4.40;99.80;;;;;;5071448;28;20348;-73
2022/01/06 07:07:23;;;;;;;8.82;2.75;;;4.40;99.90;;;;;;5071082;28;20025;-73
2022/01/06 07:09:50;;;;;;;10.77;2.53;;;4.50;99.90;;;;;;5071469;28;20043;-74
2022/01/06 07:12:15;;;;;;;10.65;3.08;;;4.50;99.90;;;;;;5069975;28;20036;-74
2022/01/06 07:14:41;;;;;;;15.45;3.15;;;4.40;99.70;;;;;;5068289;28;20532;-74
2022/01/06 07:17:07;;;;;;;14.80;3.10;;;4.40;99.80;;;;;;5069573;28;20450;-74
2022/01/06 07:19:32;;;;;;;18.38;4.05;;;4.30;99.90;;;;;;5070515;28;20076;-74
2022/01/06 07:21:58;;;;;;;17.73;3.83;;;4.30;99.90;;;;;;5056009;28;20045;-76
2022/01/06 07:24:24;;;;;;;13.40;3.92;;;4.40;99.90;;;;;;5050727;28;20025;-76
2022/01/06 07:26:49;;;;;;;11.10;3.10;;;4.40;99.80;;;;;;5062440;28;20421;-77
2022/01/06 07:29:15;;;;;;;11.00;2.58;;;4.40;99.90;;;;;;5062469;28;20037;-76
2022/01/06 07:31:41;;;;;;;9.02;2.10;;;4.40;99.80;;;;;;5050850;28;20040;-76
2022/01/06 07:34:07;;;;;;;13.15;2.75;;;4.50;99.70;;;;;;5051210;28;20039;-77
2022/01/06 07:36:32;;;;;;;11.43;2.65;;;4.40;99.70;;;;;;5066693;28;20070;-77
2022/01/06 07:38:58;;;;;;;7.72;2.47;;;4.30;99.80;;;;;;5067845;28;20483;-78
2022/01/06 07:41:24;;;;;;;11.48;2.85;;;4.30;99.90;;;;;;5070393;28;20086;-78
2022/01/06 07:43:49;;;;;;;14.18;2.67;;;4.40;99.90;;;;;;5070729;28;20032;-74
2022/01/06 07:46:15;;;;;;;12.52;1.65;;;4.40;99.80;;;;;;5069063;28;20128;-74
2022/01/06 07:48:57;;;;;;;7.53;1.75;;;4.30;99.70;;;;;;5071875;28;20063;-74
2022/01/06 07:51:30;;;;;;;8.68;1.98;;;4.40;99.70;;;;;;5071779;28;20063;-75
2022/01/06 07:53:58;;;;;;;13.52;2.53;;;4.40;99.70;;;;;;5073034;28;20035;-75
2022/01/06 07:56:24;;;;;;;6.57;1.92;;;4.40;99.70;;;;;;5071583;28;20047;-75
2022/01/06 07:58:50;;;;;;;14.20;2.65;;;4.50;99.70;;;;;;5071388;28;20028;-76
2022/01/06 08:01:16;;;;;;;8.50;2.35;;;4.50;99.50;;;;;;5071881;28;20090;-75
2022/01/06 08:03:42;;;;;;;11.60;1.75;;;4.60;99.70;;;;;;5070908;28;20117;-77
2022/01/06 08:06:09;;;;;;;12.60;1.73;;;4.60;99.40;;;;;;5071497;28;20025;-76
2022/01/06 08:08:35;;;;;;;12.98;1.77;;;4.60;99.50;;;;;;5070116;28;20097;-76
2022/01/06 08:11:00;;;;;;;10.30;2.17;;;4.60;99.40;;;;;;5069653;28;20032;-75
2022/01/06 08:13:26;;;;;;;14.18;2.55;;;4.70;99.40;;;;;;5071584;28;20043;-77
2022/01/06 08:15:52;;;;;;;9.93;2.08;;;4.60;99.30;;;;;;5069896;28;20032;-74
2022/01/06 08:18:18;;;;;;;9.45;1.77;;;4.70;99.40;;;;;;5071340;28;20067;-74
2022/01/06 08:20:43;;;;;;;11.88;1.90;;;4.80;99.50;;;;;;5074842;28;20037;-75
2022/01/06 08:23:09;;;;;;;9.85;1.88;;;4.80;99.30;;;;;;5074794;28;20335;-75
2022/01/06 08:25:35;;;;;;;6.82;1.95;;;4.80;99.20;;;;;;5074947;28;20020;-75
2022/01/06 08:28:01;;;;;;;11.25;2.45;;;4.80;99.10;;;;;;5073587;28;20036;-75
2022/01/06 08:30:27;;;;;;;14.45;1.60;;;4.90;99.20;;;;;;5074730;28;20521;-75
2022/01/06 08:32:55;;;;;;;10.38;2.08;;;4.90;99.10;;;;;;5073562;28;20032;-77
2022/01/06 08:35:21;;;;;;;9.38;2.15;;;4.80;99.10;;;;;;5074378;28;20343;-73
2022/01/06 08:37:47;;;;;;;7.40;1.42;;;4.90;99.10;;;;;;5074280;28;20028;-77
2022/01/06 08:40:12;;;;;;;12.38;1.83;;;4.90;99.00;;;;;;5073414;28;20037;-82
2022/01/06 08:42:38;;;;;;;10.60;1.70;;;5.00;99.10;;;;;;5074593;28;20036;-79
2022/01/06 08:45:04;;;;;;;11.18;2.10;;;4.90;98.90;;;;;;5073547;28;20461;-82
2022/01/06 08:47:31;;;;;;;13.50;1.92;;;5.00;99.00;;;;;;5073242;28;20128;-77
2022/01/06 08:49:57;;;;;;;12.02;2.40;;;5.10;98.90;;;;;;5074187;28;20025;-78
2022/01/06 08:52:22;;;;;;;13.57;2.28;;;5.10;98.80;;;;;;5074569;28;20039;-80
2022/01/06 08:54:48;;;;;;;3.53;1.50;;;5.20;98.80;;;;;;5073288;28;20215;-77
2022/01/06 08:57:14;;;;;;;16.45;3.10;;;5.30;98.90;;;;;;5074964;28;20106;-77
2022/01/06 08:59:40;;;;;;;8.65;2.10;;;5.50;98.60;;;;;;5073864;28;20032;-79
2022/01/06 09:02:05;;;;;;;7.35;1.85;;;5.60;98.60;;;;;;5073876;28;20446;-80
2022/01/06 09:04:31;;;;;;;16.48;3.30;;;5.70;98.70;;;;;;5074679;28;20521;-78
2022/01/06 09:06:58;;;;;;;6.30;2.03;;;5.70;98.40;;;;;;5074589;28;20028;-79
2022/01/06 09:09:24;;;;;;;11.52;2.03;;;5.80;98.40;;;;;;5074617;28;20020;-79
2022/01/06 09:11:50;;;;;;;9.23;1.38;;;5.90;98.00;;;;;;5074578;28;20027;-77
2022/01/06 09:14:16;;;;;;;7.13;1.90;;;5.90;97.90;;;;;;5073595;28;20025;-74
2022/01/06 09:16:42;;;;;;;8.48;1.73;;;6.00;97.60;;;;;;5074080;28;20249;-77
2022/01/06 09:19:08;;;;;;;9.00;1.60;;;6.10;97.30;;;;;;5073559;28;20036;-76
2022/01/06 09:21:33;;;;;;;11.13;1.65;;;6.00;96.90;;;;;;5072468;28;20032;-77
2022/01/06 09:24:04;;;;;;;6.03;1.40;;;5.90;97.10;;;;;;5072845;28;20024;-78
2022/01/06 09:26:30;;;;;;;9.02;2.17;;;6.00;96.80;;;;;;5072213;28;20473;-71
2022/01/06 09:28:55;;;;;;;9.18;1.45;;;5.90;96.70;;;;;;5073121;28;20044;-72
2022/01/06 09:31:21;;;;;;;9.05;1.92;;;5.90;96.80;;;;;;5073451;28;20094;-80
2022/01/06 09:33:47;;;;;;;7.55;1.50;;;5.90;96.90;;;;;;5073504;28;20424;-77
2022/01/06 09:36:12;;;;;;;8.15;1.55;;;5.80;96.60;;;;;;5072630;28;20530;-75
2022/01/06 09:38:38;;;;;;;4.75;1.60;;;5.80;96.70;;;;;;5073635;28;20052;-76
2022/01/06 09:41:06;;;;;;;12.45;2.08;;;5.70;96.50;;;;;;5074374;28;20024;-76
2022/01/06 09:43:33;;;;;;;8.90;1.95;;;5.80;96.80;;;;;;5072409;28;20090;-79
2022/01/06 09:46:06;;;;;;;9.27;1.92;;;5.90;96.80;;;;;;5073821;28;20057;-80
2022/01/06 09:48:38;;;;;;;7.80;1.38;;;5.80;96.60;;;;;;5073320;28;20078;-76
2022/01/06 09:51:04;;;;;;;7.53;1.65;;;5.80;96.50;;;;;;5074612;28;20032;-76
2022/01/06 09:53:30;;;;;;;16.10;1.70;;;5.90;96.40;;;;;;5061838;28;20112;-75
2022/01/06 09:55:56;;;;;;;12.15;2.28;;;5.90;96.50;;;;;;5052988;28;20116;-77
2022/01/06 09:58:26;;;;;;;11.85;2.35;;;6.00;96.50;;;;;;5068585;28;20377;-76
2022/01/06 10:00:55;;;;;;;10.95;2.08;;;5.90;96.20;;;;;;5073159;28;20028;-75
2022/01/06 10:03:21;;;;;;;9.85;2.08;;;5.90;96.40;;;;;;5073204;28;20037;-75
2022/01/06 10:05:52;;;;;;;10.07;1.90;;;5.80;96.60;;;;;;5073219;28;20486;-75
2022/01/06 10:08:28;;;;;;;8.25;1.85;;;5.90;96.80;;;;;;5073063;28;20032;-75
2022/01/06 10:11:16;;;;;;;10.45;2.42;;;6.00;96.50;;;;;;5072921;28;20025;-78
2022/01/06 10:13:43;;;;;;;8.65;2.50;;;6.10;96.60;;;;;;5071633;28;20093;-74
2022/01/06 10:16:17;;;;;;;6.27;1.83;;;6.20;96.50;;;;;;5052796;28;20032;-72
2022/01/06 10:19:14;;;;;;;7.63;2.03;;;6.10;96.40;;;;;;5070211;28;20033;-72
2022/01/06 10:21:48;;;;;;;8.77;2.40;;;6.20;96.40;;;;;;5067920;28;20132;-73
2022/01/06 10:24:15;;;;;;;7.35;2.05;;;6.20;96.20;;;;;;5072646;28;20047;-75
2022/01/06 10:27:06;;;;;;;12.27;1.90;;;6.00;96.20;;;;;;5072447;28;20115;-75
2022/01/06 10:29:52;;;;;;;19.58;2.33;;;6.00;96.30;;;;;;5070531;28;20029;-75
2022/01/06 10:32:24;;;;;;;12.10;2.10;;;6.10;96.20;;;;;;5070355;28;20515;-73
2022/01/06 10:35:02;;;;;;;10.95;1.88;;;6.10;96.30;;;;;;5070286;28;20033;-73
2022/01/06 10:37:31;;;;;;;12.57;2.25;;;6.10;96.40;;;;;;5070955;28;20131;-74
2022/01/06 10:39:59;;;;;;;14.38;3.17;;;6.30;96.40;;;;;;5070651;28;20032;-74
2022/01/06 10:42:28;;;;;;;19.10;5.25;;;6.20;96.30;;;;;;5070919;28;20660;-81
2022/01/06 10:44:59;;;;;;;8.80;2.65;;;6.10;96.20;;;;;;5072207;28;20272;-78
2022/01/06 10:47:32;;;;;;;12.95;2.50;;;6.20;96.40;;;;;;5070535;28;20040;-78
2022/01/06 10:50:18;;;;;;;13.85;2.97;;;6.20;96.30;;;;;;5070680;28;20394;-80
2022/01/06 10:52:47;;;;;;;20.63;2.20;;;6.30;96.30;;;;;;5071847;28;20093;-77
2022/01/06 10:55:17;;;;;;;9.48;2.70;;;6.50;96.40;;;;;;5071838;28;20395;-78
2022/01/06 10:57:55;;;;;;;14.95;2.70;;;6.40;96.40;;;;;;5071840;28;20362;-79
2022/01/06 11:00:25;;;;;;;10.73;2.03;;;6.50;96.30;;;;;;5071979;28;20489;-79
2022/01/06 11:02:51;;;;;;;13.55;2.97;;;6.40;95.90;;;;;;5070432;28;20049;-75
2022/01/06 11:05:17;;;;;;;13.95;2.58;;;6.40;96.10;;;;;;5070398;28;20033;-80
2022/01/06 11:07:43;;;;;;;11.75;2.13;;;6.50;96.10;;;;;;5069994;28;20033;-78
2022/01/06 11:10:19;;;;;;;12.57;2.72;;;6.30;95.80;;;;;;5051557;28;20025;-71
2022/01/06 11:12:45;;;;;;;16.23;2.65;;;6.30;96.20;;;;;;5050473;28;20025;-78
2022/01/06 11:15:10;;;;;;;13.38;2.88;;;6.60;96.40;;;;;;5054082;28;20037;-72
2022/01/06 11:17:37;;;;;;;8.13;2.28;;;6.50;96.20;;;;;;5071273;28;20040;-71
2022/01/06 11:20:03;;;;;;;15.70;2.85;;;6.50;96.20;;;;;;5070648;28;20033;-72
2022/01/06 11:22:29;;;;;;;11.05;3.10;;;6.70;96.20;;;;;;5069095;28;20154;-74
2022/01/06 11:24:56;;;;;;;14.05;2.92;;;6.70;96.00;;;;;;5071114;28;20159;-73
2022/01/06 11:27:37;;;;;;;17.98;3.08;;;6.80;96.10;;;;;;5071127;28;20020;-73
2022/01/06 11:30:17;;;;;;;10.98;2.55;;;6.90;95.90;;;;;;5071376;28;20035;-72
2022/01/06 11:32:43;;;;;;;11.65;2.95;;;7.00;95.80;;;;;;5070348;28;20048;-73
2022/01/06 11:35:11;;;;;;;14.00;2.10;;;7.10;95.70;;;;;;5070996;28;20055;-73
2022/01/06 11:37:40;;;;;;;15.40;3.00;;;7.40;95.40;;;;;;5070707;28;20056;-71
2022/01/06 11:40:07;;;;;;;11.55;2.45;;;8.00;95.40;;;;;;5068753;28;20070;-72
2022/01/06 11:42:32;;;;;;;16.50;3.13;;;8.80;95.10;;;;;;5069474;28;20017;-71
2022/01/06 11:44:58;;;;;;;15.82;2.55;;;9.50;94.10;;;;;;5069861;28;20030;-72
2022/01/06 11:47:42;;;;;;;11.18;2.63;;;10.20;92.50;;;;;;5070813;28;20054;-77
2022/01/06 11:50:19;;;;;;;10.13;2.65;;;10.20;90.60;;;;;;5069985;28;20111;-75
2022/01/06 11:52:59;;;;;;;10.32;3.03;;;10.30;90.40;;;;;;5069578;28;20036;-73
2022/01/06 11:55:33;;;;;;;16.85;3.70;;;10.50;90.10;;;;;;5070651;28;20366;-75
2022/01/06 11:58:11;;;;;;;10.60;2.60;;;10.80;89.90;;;;;;5070700;28;20036;-75
2022/01/06 12:00:37;;;;;;;;;;;10.90;89.30;;;;;;5071072;28;20473;-72
2022/01/06 12:03:10;;;;;;;14.73;2.67;;;10.70;89.10;;;;;;5070154;28;19942;-74
2022/01/06 12:05:48;;;;;;;13.68;2.67;;;10.70;88.60;;;;;;5070684;28;20044;-75
2022/01/06 12:08:14;;;;;;;8.55;2.20;;;10.50;90.00;;;;;;5070363;28;20039;-74
2022/01/06 12:10:45;;;;;;;15.38;2.97;;;10.40;88.90;;;;;;5070350;28;20028;-74
2022/01/06 12:13:11;;;;;;;9.60;2.92;;;10.60;89.00;;;;;;5069964;28;20028;-72
2022/01/06 12:15:56;;;;;;;10.40;2.88;;;10.20;89.20;;;;;;5070799;28;20031;-77
2022/01/06 12:18:26;;;;;;;10.63;3.00;;;10.20;89.20;;;;;;5070664;28;20021;-76
2022/01/06 12:20:53;;;;;;;14.60;3.35;;;10.30;88.80;;;;;;5070454;28;20517;-72
2022/01/06 12:23:19;;;;;;;12.13;2.92;;;10.20;89.10;;;;;;5068912;28;20079;-74
2022/01/06 12:26:14;;;;;;;10.00;2.42;;;10.10;88.60;;;;;;5070073;28;20326;-72
2022/01/06 12:28:49;;;;;;;15.57;3.30;;;10.10;88.90;;;;;;5057260;28;20029;-73
2022/01/06 12:31:26;;;;;;;12.63;3.15;;;10.00;89.60;;;;;;5050330;28;20029;-76
2022/01/06 12:33:58;;;;;;;21.55;3.55;;;10.10;89.60;;;;;;5050763;28;20037;-75
2022/01/06 12:36:25;;;;;;;18.17;3.17;;;10.10;89.50;;;;;;5053539;28;20016;-74
2022/01/06 12:38:51;;;;;;;21.30;4.10;;;9.90;90.10;;;;;;5071081;28;20021;-74
2022/01/06 12:41:26;;;;;;;12.32;3.00;;;9.70;90.10;;;;;;5069788;28;20028;-73
2022/01/06 12:43:52;;;;;;;15.32;2.92;;;9.60;90.30;;;;;;5070139;28;20033;-74
2022/01/06 12:46:18;;;;;;;12.73;3.15;;;9.60;90.20;;;;;;5070187;28;20494;-74
2022/01/06 12:48:46;;;;;;;12.30;3.03;;;9.70;90.20;;;;;;5069541;28;20099;-75
2022/01/06 12:51:16;;;;;;;14.73;3.53;;;9.70;90.40;;;;;;5070435;28;20033;-72
2022/01/06 12:53:45;;;;;;;21.88;3.33;;;9.70;90.50;;;;;;5070292;28;20083;-76
2022/01/06 12:56:27;;;;;;;12.38;3.53;;;9.50;90.00;;;;;;5069487;28;20075;-74
2022/01/06 12:58:55;;;;;;;17.02;3.65;;;9.50;90.30;;;;;;5070286;28;20024;-73
2022/01/06 13:01:20;;;;;;;14.00;3.75;;;9.50;90.30;;;;;;5069456;28;20094;-75